BILKA UKFF-UKFF
Flight info
| Callsign | BILKA |
|---|---|
| Flight time | 0h 9m |
| Altitude | 3000 |
| Route | SORON M986 SLV |
| Aircraft | L29/M-SDE2E3FGHIRWXY/LB1 |
Departure
| Time | 2026-04-21 19:40 |
|---|---|
| Airport | Simferopol International Airport (UKFF) |
Arrival
| Time | 2026-04-21 19:50 |
|---|---|
| Airport | Simferopol International Airport (UKFF) |
| Time | Latitude | Longitude | Altitude | Speed | Heading |
|---|---|---|---|---|---|
| 2026-04-21 19:38 | 45.03380 | 33.97673 | 606 ft | 0 kts | 14° |
| 2026-04-21 19:38 | 45.03402 | 33.97675 | 606 ft | 14 kts | 356° |
| 2026-04-21 19:38 | 45.03543 | 33.97619 | 607 ft | 34 kts | 335° |
| 2026-04-21 19:38 | 45.03692 | 33.96898 | 595 ft | 1 kts | 18° |
| 2026-04-21 19:39 | 45.03736 | 33.96907 | 594 ft | 13 kts | 2° |
| 2026-04-21 19:39 | 45.04033 | 33.96919 | 590 ft | 71 kts | 9° |
| 2026-04-21 19:39 | 45.04611 | 33.97127 | 586 ft | 99 kts | 11° |
| 2026-04-21 19:39 | 45.05243 | 33.97648 | 654 ft | 115 kts | 38° |
| 2026-04-21 19:40 | 45.05850 | 33.98553 | 807 ft | 137 kts | 48° |
| 2026-04-21 19:40 | 45.06604 | 33.99385 | 1067 ft | 148 kts | 28° |
| 2026-04-21 19:40 | 45.07494 | 34.00123 | 1562 ft | 145 kts | 19° |
| 2026-04-21 19:40 | 45.08104 | 33.99497 | 1468 ft | 154 kts | 265° |
| 2026-04-21 19:41 | 45.07386 | 33.98189 | 961 ft | 193 kts | 206° |
| 2026-04-21 19:41 | 45.06227 | 33.97705 | 631 ft | 144 kts | 198° |
| 2026-04-21 19:41 | 45.05418 | 33.97448 | 690 ft | 95 kts | 195° |
| 2026-04-21 19:41 | 45.04750 | 33.97662 | 742 ft | 108 kts | 152° |
| 2026-04-21 19:42 | 45.04321 | 33.98486 | 978 ft | 112 kts | 80° |
| 2026-04-21 19:42 | 45.04769 | 33.99329 | 1123 ft | 109 kts | 14° |
| 2026-04-21 19:42 | 45.05517 | 33.99691 | 1228 ft | 120 kts | 11° |
| 2026-04-21 19:42 | 45.06378 | 34.00145 | 1191 ft | 140 kts | 19° |
| 2026-04-21 19:43 | 45.07284 | 34.00613 | 1654 ft | 137 kts | 10° |
| 2026-04-21 19:43 | 45.08215 | 34.00631 | 1976 ft | 140 kts | 341° |
| 2026-04-21 19:43 | 45.09146 | 33.99803 | 1656 ft | 181 kts | 303° |
| 2026-04-21 19:43 | 45.09474 | 33.98058 | 1653 ft | 193 kts | 249° |
| 2026-04-21 19:44 | 45.08215 | 33.97710 | 1483 ft | 223 kts | 177° |
| 2026-04-21 19:44 | 45.07838 | 33.97757 | 1249 ft | 237 kts | 174° |
| 2026-04-21 19:44 | 45.07407 | 33.97817 | 881 ft | 254 kts | 175° |
| 2026-04-21 19:44 | 45.05643 | 33.97507 | 670 ft | 255 kts | 199° |
| 2026-04-21 19:45 | 45.04018 | 33.96980 | 827 ft | 218 kts | 196° |
| 2026-04-21 19:45 | 45.02720 | 33.96464 | 1095 ft | 169 kts | 200° |
| 2026-04-21 19:45 | 45.01862 | 33.95748 | 1340 ft | 118 kts | 250° |
| 2026-04-21 19:45 | 45.02305 | 33.95087 | 1014 ft | 130 kts | 356° |
| 2026-04-21 19:46 | 45.03241 | 33.95355 | 888 ft | 154 kts | 14° |
| 2026-04-21 19:46 | 45.04364 | 33.95923 | 941 ft | 184 kts | 19° |
| 2026-04-21 19:46 | 45.05632 | 33.96644 | 820 ft | 215 kts | 20° |
| 2026-04-21 19:46 | 45.06945 | 33.97401 | 1163 ft | 190 kts | 13° |
| 2026-04-21 19:47 | 45.08120 | 33.97823 | 1258 ft | 152 kts | 8° |
| 2026-04-21 19:47 | 45.09048 | 33.98051 | 1024 ft | 125 kts | 10° |
| 2026-04-21 19:47 | 45.09890 | 33.98439 | 892 ft | 131 kts | 19° |
| 2026-04-21 19:47 | 45.09986 | 33.99388 | 854 ft | 133 kts | 174° |
| 2026-04-21 19:48 | 45.09173 | 33.98988 | 766 ft | 119 kts | 211° |
| 2026-04-21 19:48 | 45.08483 | 33.98536 | 766 ft | 107 kts | 202° |
| 2026-04-21 19:48 | 45.07764 | 33.98248 | 716 ft | 106 kts | 198° |
| 2026-04-21 19:48 | 45.07032 | 33.97989 | 635 ft | 109 kts | 199° |
| 2026-04-21 19:49 | 45.06301 | 33.97740 | 606 ft | 108 kts | 200° |
| 2026-04-21 19:49 | 45.05558 | 33.97493 | 594 ft | 109 kts | 198° |
| 2026-04-21 19:49 | 45.04858 | 33.97252 | 587 ft | 97 kts | 196° |
| 2026-04-21 19:49 | 45.04263 | 33.97027 | 600 ft | 75 kts | 204° |
| 2026-04-21 19:50 | 45.03965 | 33.96940 | 591 ft | 60 kts | 197° |
| 2026-04-21 19:50 | 45.03561 | 33.96860 | 594 ft | 34 kts | 182° |
| 2026-04-21 19:50 | 45.03466 | 33.96854 | 591 ft | 0 kts | 30° |